createdAt,value
2023-01-17T00:02:07.065Z,96849.34
2023-01-17T00:05:06.887Z,96846.50
2023-01-17T00:07:52.420Z,96845.88
2023-01-17T00:10:22.298Z,96853.31
2023-01-17T00:12:53.065Z,96854.13
2023-01-17T00:15:23.140Z,96850.09
2023-01-17T00:17:51.517Z,96857.72
2023-01-17T00:20:38.895Z,96855.69
2023-01-17T00:23:25.584Z,96865.38
2023-01-17T00:26:05.538Z,96871.78
2023-01-17T00:28:35.566Z,96864.72
2023-01-17T00:31:02.519Z,96873.53
2023-01-17T00:33:29.172Z,96873.13
2023-01-17T00:35:57.048Z,96879.94
2023-01-17T00:38:25.148Z,96879.72
2023-01-17T00:40:52.090Z,96878.31
2023-01-17T00:43:38.918Z,96888.16
2023-01-17T00:46:25.872Z,96890.56
2023-01-17T00:49:11.274Z,96891.94
2023-01-17T00:51:56.542Z,96904.41
2023-01-17T00:54:41.499Z,96907.78
2023-01-17T00:57:27.033Z,96908.38
2023-01-17T01:00:12.412Z,96917.59
2023-01-17T01:02:59.044Z,96936.13
2023-01-17T01:05:44.012Z,96940.75
2023-01-17T01:08:40.281Z,96924.69
2023-01-17T01:11:27.374Z,96924.06
2023-01-17T01:14:12.808Z,96936.34
2023-01-17T01:16:58.150Z,96942.16
2023-01-17T01:19:44.641Z,96951.34
2023-01-17T01:22:29.639Z,96946.78
2023-01-17T01:25:14.907Z,96957.25
2023-01-17T01:28:00.074Z,96951.44
2023-01-17T01:30:45.245Z,96969.66
2023-01-17T01:33:20.579Z,96962.81
2023-01-17T01:35:51.624Z,96976.28
2023-01-17T01:38:20.418Z,96972.69
2023-01-17T01:40:49.945Z,96979.59
2023-01-17T01:43:19.755Z,96966.28
2023-01-17T01:45:51.760Z,96976.94
2023-01-17T01:48:32.842Z,96968.47
2023-01-17T01:51:04.942Z,96962.09
2023-01-17T01:53:35.745Z,96981.16
2023-01-17T01:56:07.023Z,96980.53
2023-01-17T01:58:37.714Z,96987.00
2023-01-17T02:01:06.450Z,96982.16
2023-01-17T02:03:35.637Z,96993.03
2023-01-17T02:06:15.527Z,96995.84
2023-01-17T02:08:43.505Z,96998.69
2023-01-17T02:11:11.880Z,96996.44
2023-01-17T02:13:39.525Z,97003.09
2023-01-17T02:16:18.488Z,97002.09
2023-01-17T02:18:56.353Z,97009.25
2023-01-17T02:21:28.255Z,97009.41
2023-01-17T02:24:26.759Z,97015.06
2023-01-17T02:27:05.449Z,97016.69
2023-01-17T02:30:06.381Z,97017.84
2023-01-17T02:32:47.585Z,97027.19
2023-01-17T02:35:25.470Z,97022.06
2023-01-17T02:38:02.066Z,97035.91
2023-01-17T02:40:35.649Z,97028.19
2023-01-17T02:43:07.489Z,97035.38
2023-01-17T02:45:35.376Z,97023.13
2023-01-17T02:48:08.079Z,97027.50
2023-01-17T02:50:52.885Z,97022.91
2023-01-17T02:53:32.747Z,97010.59
2023-01-17T02:56:09.967Z,97018.13
2023-01-17T02:58:55.110Z,97017.22
2023-01-17T03:01:30.103Z,97020.97
2023-01-17T03:04:04.767Z,97018.78
2023-01-17T03:06:37.394Z,97018.53
2023-01-17T03:09:05.825Z,97016.31
2023-01-17T03:11:34.398Z,97007.63
2023-01-17T03:14:02.199Z,97001.63
2023-01-17T03:16:32.887Z,97012.44
2023-01-17T03:19:02.154Z,97008.78
2023-01-17T03:21:29.701Z,97006.84
2023-01-17T03:23:57.261Z,97011.72
2023-01-17T03:26:24.891Z,97018.22
2023-01-17T03:28:52.435Z,97027.09
2023-01-17T03:31:20.802Z,97030.38
2023-01-17T03:33:48.567Z,97028.72
2023-01-17T03:36:18.465Z,97034.59
2023-01-17T03:38:46.008Z,97033.41
2023-01-17T03:41:13.670Z,97033.13
2023-01-17T03:43:41.220Z,97035.28
2023-01-17T03:46:19.652Z,97034.75
2023-01-17T03:48:47.296Z,97036.69
2023-01-17T03:51:15.060Z,97041.56
2023-01-17T03:53:46.254Z,97037.88
2023-01-17T03:56:14.494Z,97039.63
2023-01-17T03:58:42.500Z,97038.31
2023-01-17T04:01:10.458Z,97047.19
2023-01-17T04:03:38.099Z,97050.09
2023-01-17T04:06:06.131Z,97050.25
2023-01-17T04:08:33.912Z,97054.09
2023-01-17T04:11:03.008Z,97047.00
2023-01-17T04:13:30.582Z,97058.50
2023-01-17T04:15:58.377Z,97052.31
2023-01-17T04:18:26.503Z,97043.19
2023-01-17T04:20:54.211Z,97035.50
2023-01-17T04:23:21.804Z,97043.72
2023-01-17T04:25:49.367Z,97038.53
2023-01-17T04:28:18.281Z,97039.53
2023-01-17T04:30:45.912Z,97044.50
2023-01-17T04:33:13.695Z,97050.09
2023-01-17T04:35:41.402Z,97042.88
2023-01-17T04:38:09.078Z,97051.47
2023-01-17T04:40:36.785Z,97049.63
2023-01-17T04:43:04.376Z,97050.81
2023-01-17T04:45:33.401Z,97050.53
2023-01-17T04:48:04.941Z,97037.59
2023-01-17T04:50:32.622Z,97050.53
2023-01-17T04:53:00.438Z,97050.19
2023-01-17T04:55:28.327Z,97052.16
2023-01-17T04:57:56.107Z,97059.94
2023-01-17T05:00:24.310Z,97065.63
2023-01-17T05:02:53.533Z,97062.25
2023-01-17T05:05:21.171Z,97064.34
2023-01-17T05:07:54.692Z,97064.81
2023-01-17T05:10:22.551Z,97058.22
2023-01-17T05:12:55.137Z,97058.97
2023-01-17T05:15:22.967Z,97071.47
2023-01-17T05:17:54.300Z,97064.50
2023-01-17T05:20:23.348Z,97065.88
2023-01-17T05:22:55.772Z,97068.38
2023-01-17T05:25:23.808Z,97065.38
2023-01-17T05:27:51.457Z,97071.44
2023-01-17T05:30:20.180Z,97064.66
2023-01-17T05:32:49.720Z,97069.34
2023-01-17T05:35:19.664Z,97076.63
2023-01-17T05:37:49.057Z,97068.84
2023-01-17T05:40:17.353Z,97072.00
2023-01-17T05:42:48.597Z,97061.78
2023-01-17T05:45:17.628Z,97064.78
2023-01-17T05:47:45.313Z,97070.69
2023-01-17T05:50:13.816Z,97073.31
2023-01-17T05:52:43.074Z,97069.91
2023-01-17T05:55:11.354Z,97069.75
2023-01-17T05:57:39.781Z,97070.69
2023-01-17T06:00:08.943Z,97066.84
2023-01-17T06:02:36.637Z,97072.84
2023-01-17T06:05:04.665Z,97064.16
2023-01-17T06:07:32.899Z,97071.13
2023-01-17T06:10:01.949Z,97063.88
2023-01-17T06:12:29.775Z,97052.38
2023-01-17T06:14:58.121Z,97057.31
2023-01-17T06:17:25.803Z,97054.56
2023-01-17T06:19:53.377Z,97062.38
2023-01-17T06:22:21.070Z,97057.75
2023-01-17T06:24:48.702Z,97053.75
2023-01-17T06:27:17.605Z,97054.81
2023-01-17T06:29:45.334Z,97058.41
2023-01-17T06:32:14.239Z,97057.25
2023-01-17T06:34:42.295Z,97059.03
2023-01-17T06:37:09.966Z,97055.09
2023-01-17T06:39:37.721Z,97057.59
2023-01-17T06:42:05.361Z,97064.47
2023-01-17T06:44:34.299Z,97059.59
2023-01-17T06:47:01.882Z,97061.34
2023-01-17T06:49:29.736Z,97062.06
2023-01-17T06:51:57.391Z,97064.53
2023-01-17T06:54:25.049Z,97059.34
2023-01-17T06:56:52.630Z,97068.56
2023-01-17T06:59:20.179Z,97061.00
2023-01-17T07:01:49.316Z,97059.41
2023-01-17T07:04:17.103Z,97054.63
2023-01-17T07:06:44.770Z,97055.91
2023-01-17T07:09:12.425Z,97063.56
2023-01-17T07:11:40.008Z,97053.31
2023-01-17T07:14:13.500Z,97053.50
2023-01-17T07:16:43.591Z,97055.47
2023-01-17T07:19:12.990Z,97061.25
2023-01-17T07:21:40.679Z,97053.59
2023-01-17T07:24:09.061Z,97052.94
2023-01-17T07:26:37.727Z,97047.38
2023-01-17T07:29:05.708Z,97052.78
2023-01-17T07:31:35.215Z,97052.84
2023-01-17T07:34:03.093Z,97052.97
2023-01-17T07:36:32.042Z,97043.88
2023-01-17T07:38:59.793Z,97037.13
2023-01-17T07:41:27.397Z,97032.97
2023-01-17T07:43:56.405Z,97037.72
2023-01-17T07:46:24.261Z,97028.03
2023-01-17T07:48:52.142Z,97029.81
2023-01-17T07:51:19.863Z,97024.59
2023-01-17T07:53:48.773Z,97030.88
2023-01-17T07:56:16.415Z,97023.22
2023-01-17T07:58:44.020Z,97026.19
2023-01-17T08:01:13.419Z,97019.53
2023-01-17T08:03:41.181Z,97011.63
2023-01-17T08:06:17.023Z,97014.16
2023-01-17T08:08:44.644Z,97005.94
2023-01-17T08:11:13.857Z,97016.13
2023-01-17T08:13:41.782Z,96998.69
2023-01-17T08:16:10.669Z,97008.13
2023-01-17T08:18:38.453Z,97004.53
2023-01-17T08:21:12.922Z,96996.72
2023-01-17T08:23:40.514Z,96997.19
2023-01-17T08:26:08.093Z,96995.81
2023-01-17T08:28:37.098Z,97000.94
2023-01-17T08:31:08.709Z,97001.28
2023-01-17T08:33:36.505Z,97003.69
2023-01-17T08:36:04.367Z,96996.63
2023-01-17T08:38:32.336Z,97002.66
2023-01-17T08:41:01.436Z,97003.88
2023-01-17T08:43:29.119Z,96993.25
2023-01-17T08:45:58.130Z,96997.59
2023-01-17T08:48:25.832Z,97003.72
2023-01-17T08:50:53.551Z,97004.28
2023-01-17T08:53:23.058Z,97001.75
2023-01-17T08:55:58.429Z,97009.75
2023-01-17T08:58:29.778Z,97007.53
2023-01-17T09:01:02.585Z,97009.03
2023-01-17T09:03:30.888Z,97001.84
2023-01-17T09:06:02.909Z,97012.03
2023-01-17T09:08:30.546Z,97011.78
2023-01-17T09:10:58.223Z,97024.91
2023-01-17T09:13:25.928Z,97021.47
2023-01-17T09:15:57.306Z,97028.78
2023-01-17T09:18:26.625Z,97029.00
2023-01-17T09:20:55.351Z,97024.84
2023-01-17T09:23:23.350Z,97023.13
2023-01-17T09:25:54.483Z,97024.72
2023-01-17T09:28:22.579Z,97029.75
2023-01-17T09:30:50.667Z,97024.97
2023-01-17T09:33:18.569Z,97033.72
2023-01-17T09:35:47.701Z,97034.59
2023-01-17T09:38:15.327Z,97027.00
2023-01-17T09:40:46.596Z,97019.25
2023-01-17T09:43:23.186Z,97016.50
2023-01-17T09:45:51.509Z,97014.13
2023-01-17T09:48:29.209Z,97019.06
2023-01-17T09:51:03.692Z,97018.78
2023-01-17T09:53:35.978Z,97025.28
2023-01-17T09:56:08.534Z,97023.00
2023-01-17T09:58:43.341Z,97027.31
2023-01-17T10:01:19.583Z,97027.81
2023-01-17T10:04:13.578Z,97033.38
2023-01-17T10:06:56.316Z,97029.97
2023-01-17T10:09:45.977Z,97030.47
2023-01-17T10:12:21.997Z,97021.69
2023-01-17T10:15:10.045Z,97013.34
2023-01-17T10:17:47.867Z,97013.66
2023-01-17T10:20:45.028Z,97002.22
2023-01-17T10:23:28.668Z,97009.25
2023-01-17T10:26:00.903Z,97011.41
2023-01-17T10:28:34.810Z,97008.59
2023-01-17T10:31:06.846Z,97005.34
2023-01-17T10:33:42.334Z,97000.91
2023-01-17T10:36:15.688Z,96992.84
2023-01-17T10:38:48.950Z,96996.53
2023-01-17T10:41:22.849Z,97003.56
2023-01-17T10:43:58.376Z,97002.59
2023-01-17T10:46:32.446Z,96994.38
2023-01-17T10:49:01.655Z,96987.88
2023-01-17T10:52:11.819Z,96989.50
2023-01-17T10:55:17.912Z,96987.19
2023-01-17T10:57:48.332Z,96982.28
2023-01-17T11:00:33.324Z,96983.53
2023-01-17T11:03:02.753Z,96973.78
2023-01-17T11:05:32.064Z,96979.41
2023-01-17T11:08:01.905Z,96981.38
2023-01-17T11:10:40.879Z,96977.19
2023-01-17T11:13:24.638Z,96975.50
2023-01-17T11:15:57.471Z,96976.34
2023-01-17T11:18:27.758Z,96962.47
2023-01-17T11:21:12.093Z,96965.03
2023-01-17T11:23:42.581Z,96965.16
2023-01-17T11:26:13.953Z,96950.47
2023-01-17T11:28:42.441Z,96957.44
2023-01-17T11:31:26.366Z,96949.59
2023-01-17T11:34:09.463Z,96942.31
2023-01-17T11:36:37.127Z,96936.50
2023-01-17T11:39:07.037Z,96939.84
2023-01-17T11:41:38.022Z,96937.56
2023-01-17T11:44:22.637Z,96935.94
2023-01-17T11:46:51.206Z,96930.06
2023-01-17T11:49:26.332Z,96919.47
2023-01-17T11:51:56.159Z,96910.53
2023-01-17T11:54:29.700Z,96910.91
2023-01-17T11:57:01.586Z,96909.03
2023-01-17T11:59:31.493Z,96903.31
2023-01-17T12:02:21.912Z,96900.34
2023-01-17T12:05:00.829Z,96907.13
2023-01-17T12:07:37.047Z,96901.06
2023-01-17T12:10:13.161Z,96896.94
2023-01-17T12:13:13.025Z,96890.00
2023-01-17T12:15:55.609Z,96881.88
2023-01-17T12:18:37.101Z,96881.22
2023-01-17T12:21:17.864Z,96881.31
2023-01-17T12:24:05.651Z,96878.00
2023-01-17T12:26:38.856Z,96873.53
2023-01-17T12:29:42.922Z,96868.03
2023-01-17T12:32:23.388Z,96865.06
2023-01-17T12:34:55.888Z,96860.38
2023-01-17T12:37:30.406Z,96860.13
2023-01-17T12:40:00.943Z,96858.53
2023-01-17T12:42:34.155Z,96850.44
2023-01-17T12:45:07.333Z,96844.97
2023-01-17T12:47:41.627Z,96847.81
2023-01-17T12:50:20.331Z,96839.22
2023-01-17T12:52:54.780Z,96838.72
2023-01-17T12:55:33.977Z,96831.38
2023-01-17T12:58:05.075Z,96832.91
2023-01-17T13:00:39.079Z,96838.06
2023-01-17T13:03:16.448Z,96828.16
2023-01-17T13:05:48.499Z,96822.81
2023-01-17T13:08:24.694Z,96828.16
2023-01-17T13:10:57.114Z,96824.81
2023-01-17T13:13:26.793Z,96809.53
2023-01-17T13:15:58.976Z,96804.25
2023-01-17T13:18:29.668Z,96796.00
2023-01-17T13:21:09.629Z,96801.31
2023-01-17T13:23:59.602Z,96795.31
2023-01-17T13:26:33.464Z,96794.28
2023-01-17T13:29:08.650Z,96796.03
2023-01-17T13:31:47.839Z,96790.31
2023-01-17T13:34:38.566Z,96792.53
2023-01-17T13:37:27.280Z,96776.75
2023-01-17T13:40:19.138Z,96774.63
2023-01-17T13:42:55.955Z,96769.84
2023-01-17T13:45:28.210Z,96763.47
2023-01-17T13:48:25.875Z,96766.56
2023-01-17T13:50:55.678Z,96757.97
2023-01-17T13:53:59.372Z,96779.03
2023-01-17T13:56:37.187Z,96770.53
2023-01-17T13:59:20.691Z,96782.97
2023-01-17T14:01:55.856Z,96791.66
2023-01-17T14:04:26.521Z,96789.75
2023-01-17T14:06:57.782Z,96796.47
2023-01-17T14:09:41.017Z,96796.94
2023-01-17T14:12:29.147Z,96794.81
2023-01-17T14:15:00.469Z,96804.97
2023-01-17T14:17:47.965Z,96812.50
2023-01-17T14:20:41.194Z,96810.16
2023-01-17T14:23:27.257Z,96808.13
2023-01-17T14:25:56.791Z,96816.19
2023-01-17T14:28:31.899Z,96807.97
2023-01-17T14:31:03.376Z,96821.09
2023-01-17T14:33:36.961Z,96821.88
2023-01-17T14:36:08.911Z,96826.41
2023-01-17T14:38:42.971Z,96823.75
2023-01-17T14:41:15.594Z,96830.69
2023-01-17T14:43:45.217Z,96829.88
2023-01-17T14:46:19.724Z,96834.75
2023-01-17T14:48:47.699Z,96820.72
2023-01-17T14:51:21.241Z,96828.97
2023-01-17T14:53:57.086Z,96818.88
2023-01-17T14:56:26.682Z,96821.41
2023-01-17T14:59:14.508Z,96825.16
2023-01-17T15:01:43.088Z,96828.88
2023-01-17T15:04:24.884Z,96823.81
2023-01-17T15:06:55.007Z,96831.91
2023-01-17T15:09:25.780Z,96825.16
2023-01-17T15:11:55.260Z,96833.91
2023-01-17T15:14:27.677Z,96834.16
2023-01-17T15:16:55.685Z,96829.91
2023-01-17T15:19:24.205Z,96836.13
2023-01-17T15:21:55.257Z,96835.31
2023-01-17T15:24:26.238Z,96823.34
2023-01-17T15:26:54.620Z,96829.06
2023-01-17T15:29:27.673Z,96819.88
2023-01-17T15:31:58.103Z,96823.50
2023-01-17T15:34:29.315Z,96823.31
2023-01-17T15:37:01.382Z,96826.47
2023-01-17T15:39:31.266Z,96820.88
2023-01-17T15:42:01.548Z,96822.09
2023-01-17T15:44:47.454Z,96826.13
2023-01-17T15:47:31.361Z,96821.88
2023-01-17T15:50:00.687Z,96815.25
2023-01-17T15:52:30.111Z,96828.34
2023-01-17T15:55:12.464Z,96821.31
2023-01-17T15:57:40.729Z,96815.25
2023-01-17T16:00:21.822Z,96819.28
2023-01-17T16:02:51.866Z,96825.50
2023-01-17T16:05:41.809Z,96822.94
2023-01-17T16:08:29.114Z,96820.69
2023-01-17T16:11:01.826Z,96826.31
2023-01-17T16:13:30.517Z,96826.53
2023-01-17T16:16:20.545Z,96822.69
2023-01-17T16:18:49.368Z,96817.06
2023-01-17T16:21:23.706Z,96817.28
2023-01-17T16:23:53.036Z,96830.78
2023-01-17T16:26:21.155Z,96827.72
2023-01-17T16:28:49.168Z,96827.94
2023-01-17T16:31:17.190Z,96826.34
2023-01-17T16:33:45.977Z,96826.13
2023-01-17T16:36:16.344Z,96822.31
2023-01-17T16:38:45.288Z,96817.03
2023-01-17T16:41:14.220Z,96815.22
2023-01-17T16:43:41.853Z,96816.84
2023-01-17T16:46:11.861Z,96825.09
2023-01-17T16:48:39.445Z,96817.66
2023-01-17T16:51:08.226Z,96824.13
2023-01-17T16:53:36.559Z,96824.50
2023-01-17T16:56:10.019Z,96817.63
2023-01-17T16:58:39.216Z,96816.81
2023-01-17T17:01:09.795Z,96811.22
2023-01-17T17:03:37.405Z,96809.13
2023-01-17T17:06:05.393Z,96804.72
2023-01-17T17:08:34.484Z,96805.78
2023-01-17T17:11:09.117Z,96809.34
2023-01-17T17:13:36.987Z,96809.59
2023-01-17T17:16:12.661Z,96804.75
2023-01-17T17:18:40.299Z,96801.28
2023-01-17T17:21:08.319Z,96809.44
2023-01-17T17:23:35.902Z,96806.31
2023-01-17T17:26:03.489Z,96806.00
2023-01-17T17:28:31.099Z,96802.31
2023-01-17T17:31:07.441Z,96810.38
2023-01-17T17:33:36.862Z,96812.44
2023-01-17T17:36:06.426Z,96820.34
2023-01-17T17:38:35.843Z,96821.75
2023-01-17T17:41:09.587Z,96820.31
2023-01-17T17:43:40.406Z,96828.63
2023-01-17T17:46:09.078Z,96832.03
2023-01-17T17:48:38.453Z,96833.66
2023-01-17T17:51:07.434Z,96829.81
2023-01-17T17:53:35.421Z,96842.09
2023-01-17T17:56:04.543Z,96843.25
2023-01-17T17:58:34.100Z,96844.31
2023-01-17T18:01:05.803Z,96841.56
2023-01-17T18:03:33.529Z,96841.34
2023-01-17T18:06:08.123Z,96835.22
2023-01-17T18:08:36.951Z,96851.00
2023-01-17T18:11:07.297Z,96852.38
2023-01-17T18:13:35.123Z,96851.16
2023-01-17T18:16:06.106Z,96864.88
2023-01-17T18:18:34.826Z,96863.44
2023-01-17T18:21:09.140Z,96861.69
2023-01-17T18:23:38.775Z,96867.66
2023-01-17T18:26:07.063Z,96861.97
2023-01-17T18:28:34.676Z,96863.97
2023-01-17T18:31:06.831Z,96876.38
2023-01-17T18:33:35.661Z,96874.78
2023-01-17T18:36:04.745Z,96883.16
2023-01-17T18:38:38.826Z,96881.50
2023-01-17T18:41:07.305Z,96887.13
2023-01-17T18:43:35.275Z,96880.94
2023-01-17T18:46:03.140Z,96892.00
2023-01-17T18:48:30.888Z,96891.25
2023-01-17T18:51:00.440Z,96883.78
2023-01-17T18:53:29.814Z,96892.41
2023-01-17T18:56:01.070Z,96893.28
2023-01-17T18:58:30.915Z,96901.16
2023-01-17T19:01:08.143Z,96901.03
2023-01-17T19:03:35.883Z,96897.13
2023-01-17T19:06:04.319Z,96891.72
2023-01-17T19:08:33.080Z,96900.88
2023-01-17T19:11:04.175Z,96901.34
2023-01-17T19:13:32.667Z,96900.63
2023-01-17T19:16:01.195Z,96899.19
2023-01-17T19:18:29.609Z,96910.22
2023-01-17T19:20:57.689Z,96913.16
2023-01-17T19:23:25.396Z,96916.84
2023-01-17T19:25:56.368Z,96920.81
2023-01-17T19:28:25.461Z,96919.25
2023-01-17T19:31:03.097Z,96921.50
2023-01-17T19:33:30.907Z,96922.22
2023-01-17T19:36:03.036Z,96924.66
2023-01-17T19:38:30.912Z,96922.03
2023-01-17T19:40:58.689Z,96930.56
2023-01-17T19:43:28.025Z,96928.44
2023-01-17T19:45:59.605Z,96929.38
2023-01-17T19:48:28.098Z,96930.63
2023-01-17T19:50:55.963Z,96931.72
2023-01-17T19:53:24.724Z,96933.06
2023-01-17T19:55:52.684Z,96929.00
2023-01-17T19:58:20.391Z,96932.25
2023-01-17T20:00:49.714Z,96927.38
2023-01-17T20:03:17.656Z,96925.84
2023-01-17T20:05:46.117Z,96921.94
2023-01-17T20:08:14.315Z,96926.97
2023-01-17T20:10:42.072Z,96930.25
2023-01-17T20:13:09.643Z,96934.44
2023-01-17T20:15:37.232Z,96931.66
2023-01-17T20:18:06.393Z,96928.81
2023-01-17T20:20:34.443Z,96934.38
2023-01-17T20:23:05.393Z,96933.06
2023-01-17T20:25:33.060Z,96931.59
2023-01-17T20:28:00.691Z,96934.19
2023-01-17T20:30:30.609Z,96929.22
2023-01-17T20:32:58.188Z,96928.50
2023-01-17T20:35:28.638Z,96935.44
2023-01-17T20:37:56.482Z,96937.97
2023-01-17T20:40:24.247Z,96932.91
2023-01-17T20:42:51.781Z,96934.03
2023-01-17T20:45:19.371Z,96939.59
2023-01-17T20:47:47.025Z,96939.53
2023-01-17T20:50:14.642Z,96939.41
2023-01-17T20:52:43.642Z,96941.81
2023-01-17T20:55:11.237Z,96939.88
2023-01-17T20:57:39.005Z,96941.13
2023-01-17T21:00:09.401Z,96935.94
2023-01-17T21:02:37.138Z,96941.75
2023-01-17T21:05:05.309Z,96939.84
2023-01-17T21:07:32.941Z,96931.50
2023-01-17T21:10:01.930Z,96943.03
2023-01-17T21:12:30.927Z,96938.03
2023-01-17T21:14:58.573Z,96938.22
2023-01-17T21:17:26.346Z,96951.28
2023-01-17T21:19:53.933Z,96950.66
2023-01-17T21:22:21.556Z,96946.44
2023-01-17T21:24:49.168Z,96947.19
2023-01-17T21:27:18.111Z,96946.25
2023-01-17T21:29:45.906Z,96949.72
2023-01-17T21:32:13.460Z,96946.28
2023-01-17T21:34:41.060Z,96942.66
2023-01-17T21:37:08.654Z,96948.66
2023-01-17T21:39:36.256Z,96951.88
2023-01-17T21:42:03.837Z,96943.59
2023-01-17T21:44:36.204Z,96951.22
2023-01-17T21:47:04.490Z,96952.00
2023-01-17T21:49:32.411Z,96955.34
2023-01-17T21:52:17.484Z,96964.06
2023-01-17T21:55:02.839Z,96960.91
2023-01-17T21:57:48.249Z,96959.41
2023-01-17T22:00:18.297Z,96959.53
2023-01-17T22:02:46.750Z,96969.22
2023-01-17T22:05:16.343Z,96970.88
2023-01-17T22:08:05.349Z,96975.63
2023-01-17T22:10:44.276Z,96972.03
2023-01-17T22:13:13.424Z,96967.28
2023-01-17T22:15:42.888Z,96976.47
2023-01-17T22:18:10.627Z,96978.09
2023-01-17T22:20:40.118Z,96975.06
2023-01-17T22:23:08.202Z,96979.13
2023-01-17T22:25:36.037Z,96978.88
2023-01-17T22:28:03.718Z,96976.28
2023-01-17T22:30:31.358Z,96984.63
2023-01-17T22:33:00.251Z,96978.78
2023-01-17T22:35:27.808Z,96985.22
2023-01-17T22:37:55.496Z,96980.34
2023-01-17T22:40:23.936Z,96988.47
2023-01-17T22:42:51.568Z,96979.09
2023-01-17T22:45:19.175Z,96983.19
2023-01-17T22:47:46.779Z,96985.84
2023-01-17T22:50:15.696Z,96981.50
2023-01-17T22:52:43.331Z,96981.50
2023-01-17T22:55:12.110Z,96976.78
2023-01-17T22:57:39.709Z,96976.63
2023-01-17T23:00:14.353Z,96979.09
2023-01-17T23:02:42.605Z,96977.84
2023-01-17T23:05:10.954Z,96979.59
2023-01-17T23:07:46.443Z,96977.88
2023-01-17T23:10:36.554Z,96976.28
2023-01-17T23:13:04.148Z,96976.59
2023-01-17T23:15:49.326Z,96977.00
2023-01-17T23:18:34.364Z,96975.25
2023-01-17T23:21:01.906Z,96973.50
2023-01-17T23:23:30.839Z,96971.88
2023-01-17T23:26:00.822Z,96979.09
2023-01-17T23:28:27.415Z,96966.84
2023-01-17T23:30:54.941Z,96974.44
2023-01-17T23:33:22.470Z,96976.00
2023-01-17T23:35:50.006Z,96968.13
2023-01-17T23:38:29.915Z,96967.00
2023-01-17T23:41:21.420Z,96974.13
2023-01-17T23:43:52.799Z,96968.16
2023-01-17T23:46:21.106Z,96960.91
2023-01-17T23:48:49.230Z,96971.28
2023-01-17T23:51:16.764Z,96965.84
2023-01-17T23:53:44.788Z,96968.88
2023-01-17T23:56:17.325Z,96963.75
2023-01-17T23:58:45.105Z,96970.34
